createdAt,value
2023-05-01T00:02:13.196Z,57.74
2023-05-01T00:04:41.301Z,57.96
2023-05-01T00:07:09.292Z,58.05
2023-05-01T00:09:37.157Z,58.23
2023-05-01T00:12:05.106Z,58.24
2023-05-01T00:14:33.038Z,58.21
2023-05-01T00:17:01.114Z,58.30
2023-05-01T00:19:28.936Z,58.53
2023-05-01T00:21:56.978Z,58.50
2023-05-01T00:24:24.919Z,58.64
2023-05-01T00:26:52.800Z,58.82
2023-05-01T00:29:20.680Z,58.94
2023-05-01T00:31:48.729Z,58.98
2023-05-01T00:34:16.806Z,59.23
2023-05-01T00:36:44.679Z,59.07
2023-05-01T00:39:12.687Z,59.11
2023-05-01T00:41:40.651Z,59.25
2023-05-01T00:44:08.570Z,59.31
2023-05-01T00:46:36.634Z,59.33
2023-05-01T00:49:04.809Z,59.41
2023-05-01T00:51:33.749Z,59.44
2023-05-01T00:54:02.957Z,59.53
2023-05-01T00:56:31.359Z,59.65
2023-05-01T00:58:59.995Z,59.60
2023-05-01T01:01:28.942Z,59.72
2023-05-01T01:03:57.132Z,59.85
2023-05-01T01:06:33.442Z,59.82
2023-05-01T01:09:31.236Z,60.00
2023-05-01T01:12:08.280Z,60.11
2023-05-01T01:14:55.431Z,60.16
2023-05-01T01:17:43.870Z,60.26
2023-05-01T01:20:27.237Z,60.19
2023-05-01T01:23:14.798Z,60.28
2023-05-01T01:26:00.661Z,60.51
2023-05-01T01:28:43.824Z,60.48
2023-05-01T01:31:22.289Z,60.56
2023-05-01T01:33:52.938Z,60.77
2023-05-01T01:36:34.868Z,60.78
2023-05-01T01:39:23.865Z,60.88
2023-05-01T01:41:53.735Z,61.05
2023-05-01T01:44:37.336Z,61.01
2023-05-01T01:47:08.408Z,61.14
2023-05-01T01:49:40.469Z,61.37
2023-05-01T01:52:13.108Z,61.35
2023-05-01T01:54:48.160Z,61.44
2023-05-01T01:57:18.644Z,61.47
2023-05-01T01:59:50.570Z,61.51
2023-05-01T02:02:20.796Z,61.53
2023-05-01T02:04:50.037Z,61.53
2023-05-01T02:07:19.633Z,61.75
2023-05-01T02:09:49.678Z,61.75
2023-05-01T02:12:19.811Z,61.77
2023-05-01T02:14:51.516Z,61.92
2023-05-01T02:17:21.373Z,62.02
2023-05-01T02:19:53.363Z,62.04
2023-05-01T02:22:22.972Z,62.21
2023-05-01T02:24:52.228Z,62.27
2023-05-01T02:27:23.549Z,62.23
2023-05-01T02:29:52.295Z,62.44
2023-05-01T02:32:20.246Z,62.39
2023-05-01T02:34:48.374Z,62.53
2023-05-01T02:37:16.667Z,62.44
2023-05-01T02:39:45.115Z,62.49
2023-05-01T02:42:16.627Z,62.44
2023-05-01T02:44:55.368Z,62.55
2023-05-01T02:47:24.757Z,62.58
2023-05-01T02:49:54.885Z,62.62
2023-05-01T02:52:23.408Z,62.51
2023-05-01T02:54:52.640Z,62.66
2023-05-01T02:57:20.769Z,62.58
2023-05-01T02:59:48.983Z,62.59
2023-05-01T03:02:16.891Z,62.69
2023-05-01T03:04:45.009Z,62.69
2023-05-01T03:07:12.960Z,62.89
2023-05-01T03:09:40.835Z,62.93
2023-05-01T03:12:08.739Z,62.97
2023-05-01T03:14:36.701Z,62.99
2023-05-01T03:17:04.725Z,63.05
2023-05-01T03:19:34.213Z,63.18
2023-05-01T03:22:02.155Z,63.09
2023-05-01T03:24:30.650Z,63.14
2023-05-01T03:26:59.012Z,63.11
2023-05-01T03:29:27.366Z,63.19
2023-05-01T03:31:57.673Z,63.32
2023-05-01T03:34:25.661Z,63.39
2023-05-01T03:36:55.636Z,63.40
2023-05-01T03:39:24.026Z,63.56
2023-05-01T03:42:18.096Z,63.83
2023-05-01T03:44:46.420Z,64.14
2023-05-01T03:47:16.157Z,64.28
2023-05-01T03:49:44.304Z,64.61
2023-05-01T03:52:13.147Z,64.97
2023-05-01T03:54:41.459Z,65.00
2023-05-01T03:57:33.548Z,65.43
2023-05-01T04:00:01.503Z,65.43
2023-05-01T04:02:31.808Z,65.50
2023-05-01T04:05:00.162Z,65.89
2023-05-01T04:07:28.998Z,65.90
2023-05-01T04:09:57.132Z,65.55
2023-05-01T04:12:25.383Z,65.49
2023-05-01T04:14:53.297Z,65.32
2023-05-01T04:17:21.484Z,65.40
2023-05-01T04:19:49.384Z,65.11
2023-05-01T04:22:17.458Z,64.92
2023-05-01T04:24:45.717Z,64.72
2023-05-01T04:27:13.759Z,64.39
2023-05-01T04:29:41.880Z,64.21
2023-05-01T04:32:10.149Z,64.15
2023-05-01T04:34:38.133Z,64.03
2023-05-01T04:37:08.915Z,63.94
2023-05-01T04:39:36.861Z,63.66
2023-05-01T04:42:05.058Z,63.40
2023-05-01T04:44:34.317Z,63.00
2023-05-01T04:47:06.349Z,62.69
2023-05-01T04:49:34.584Z,62.48
2023-05-01T04:52:02.669Z,61.92
2023-05-01T04:54:39.145Z,61.95
2023-05-01T04:57:07.209Z,61.64
2023-05-01T04:59:35.105Z,61.42
2023-05-01T05:02:03.384Z,61.20
2023-05-01T05:04:31.841Z,60.72
2023-05-01T05:06:59.865Z,60.28
2023-05-01T05:09:37.370Z,59.81
2023-05-01T05:12:05.583Z,59.61
2023-05-01T05:14:33.922Z,59.57
2023-05-01T05:17:02.019Z,59.18
2023-05-01T05:19:30.006Z,58.72
2023-05-01T05:21:57.970Z,58.58
2023-05-01T05:24:26.147Z,58.39
2023-05-01T05:26:54.910Z,58.02
2023-05-01T05:29:22.955Z,57.68
2023-05-01T05:31:50.880Z,57.41
2023-05-01T05:34:19.571Z,57.25
2023-05-01T05:36:47.528Z,56.66
2023-05-01T05:39:16.254Z,56.43
2023-05-01T05:41:44.199Z,56.14
2023-05-01T05:44:12.601Z,56.14
2023-05-01T05:46:41.008Z,55.70
2023-05-01T05:49:13.275Z,55.42
2023-05-01T05:51:41.246Z,55.31
2023-05-01T05:54:09.865Z,55.08
2023-05-01T05:56:37.805Z,54.84
2023-05-01T05:59:06.737Z,54.90
2023-05-01T06:01:34.752Z,54.63
2023-05-01T06:04:02.830Z,54.21
2023-05-01T06:06:32.200Z,54.09
2023-05-01T06:09:01.072Z,53.94
2023-05-01T06:11:29.578Z,53.96
2023-05-01T06:13:58.264Z,54.06
2023-05-01T06:16:26.597Z,53.94
2023-05-01T06:18:54.589Z,53.65
2023-05-01T06:21:22.565Z,53.43
2023-05-01T06:23:50.682Z,53.26
2023-05-01T06:26:28.549Z,53.21
2023-05-01T06:28:56.579Z,53.00
2023-05-01T06:31:25.205Z,52.61
2023-05-01T06:33:55.608Z,52.27
2023-05-01T06:36:29.409Z,51.93
2023-05-01T06:38:57.406Z,51.61
2023-05-01T06:41:25.950Z,51.31
2023-05-01T06:43:54.148Z,51.08
2023-05-01T06:46:22.132Z,51.00
2023-05-01T06:48:51.304Z,50.72
2023-05-01T06:51:19.352Z,50.87
2023-05-01T06:53:47.316Z,50.60
2023-05-01T06:56:15.474Z,49.96
2023-05-01T06:58:43.387Z,49.82
2023-05-01T07:01:11.433Z,49.85
2023-05-01T07:03:39.360Z,49.61
2023-05-01T07:06:07.359Z,49.32
2023-05-01T07:08:35.354Z,48.81
2023-05-01T07:11:03.269Z,48.80
2023-05-01T07:13:31.268Z,48.77
2023-05-01T07:15:59.229Z,48.36
2023-05-01T07:18:27.164Z,48.64
2023-05-01T07:20:55.265Z,49.69
2023-05-01T07:23:23.733Z,49.88
2023-05-01T07:25:53.089Z,50.46
2023-05-01T07:28:21.920Z,50.52
2023-05-01T07:30:49.870Z,50.39
2023-05-01T07:33:18.569Z,49.55
2023-05-01T07:35:46.663Z,49.59
2023-05-01T07:38:16.314Z,49.00
2023-05-01T07:40:44.528Z,48.76
2023-05-01T07:43:12.400Z,49.92
2023-05-01T07:45:41.396Z,49.24
2023-05-01T07:48:09.679Z,48.87
2023-05-01T07:50:38.930Z,49.04
2023-05-01T07:53:06.900Z,48.80
2023-05-01T07:55:34.826Z,49.97
2023-05-01T07:58:03.141Z,49.82
2023-05-01T08:00:31.355Z,49.59
2023-05-01T08:02:59.564Z,49.34
2023-05-01T08:05:27.607Z,49.36
2023-05-01T08:07:55.543Z,49.06
2023-05-01T08:10:23.524Z,48.89
2023-05-01T08:12:52.177Z,49.15
2023-05-01T08:15:21.760Z,49.07
2023-05-01T08:17:51.225Z,48.61
2023-05-01T08:20:19.295Z,48.48
2023-05-01T08:22:47.248Z,48.11
2023-05-01T08:25:15.402Z,48.29
2023-05-01T08:27:43.411Z,47.76
2023-05-01T08:30:11.543Z,48.27
2023-05-01T08:32:39.468Z,48.14
2023-05-01T08:35:07.709Z,48.06
2023-05-01T08:37:35.708Z,48.24
2023-05-01T08:40:08.690Z,47.05
2023-05-01T08:42:38.917Z,47.03
2023-05-01T08:45:10.810Z,47.57
2023-05-01T08:47:40.855Z,47.78
2023-05-01T08:50:14.354Z,47.38
2023-05-01T08:52:45.227Z,47.15
2023-05-01T08:55:16.359Z,46.63
2023-05-01T08:57:48.145Z,46.44
2023-05-01T09:00:21.067Z,46.12
2023-05-01T09:02:51.038Z,46.93
2023-05-01T09:05:20.684Z,47.29
2023-05-01T09:07:48.791Z,46.58
2023-05-01T09:10:19.185Z,47.09
2023-05-01T09:12:52.802Z,47.39
2023-05-01T09:15:21.630Z,46.96
2023-05-01T09:17:50.841Z,46.96
2023-05-01T09:20:19.757Z,46.83
2023-05-01T09:22:48.168Z,45.75
2023-05-01T09:25:16.141Z,46.24
2023-05-01T09:27:44.376Z,46.95
2023-05-01T09:30:33.789Z,46.18
2023-05-01T09:33:05.320Z,45.68
2023-05-01T09:35:47.905Z,45.87
2023-05-01T09:38:24.380Z,45.79
2023-05-01T09:40:57.056Z,45.95
2023-05-01T09:43:29.828Z,45.62
2023-05-01T09:46:10.889Z,45.54
2023-05-01T09:48:39.008Z,45.41
2023-05-01T09:51:29.122Z,45.19
2023-05-01T09:54:02.188Z,44.73
2023-05-01T09:56:31.975Z,44.95
2023-05-01T09:59:15.838Z,44.97
2023-05-01T10:01:46.306Z,44.60
2023-05-01T10:04:14.989Z,44.45
2023-05-01T10:06:43.028Z,45.21
2023-05-01T10:09:17.034Z,45.92
2023-05-01T10:11:54.541Z,46.32
2023-05-01T10:14:24.393Z,45.82
2023-05-01T10:16:53.814Z,46.53
2023-05-01T10:19:21.996Z,46.23
2023-05-01T10:21:50.078Z,45.62
2023-05-01T10:24:18.515Z,45.80
2023-05-01T10:26:48.727Z,45.53
2023-05-01T10:29:17.437Z,45.98
2023-05-01T10:31:45.458Z,45.62
2023-05-01T10:34:16.856Z,45.77
2023-05-01T10:36:49.333Z,46.14
2023-05-01T10:39:34.298Z,45.93
2023-05-01T10:42:05.932Z,45.79
2023-05-01T10:44:36.816Z,45.45
2023-05-01T10:47:31.339Z,45.41
2023-05-01T10:50:13.402Z,45.68
2023-05-01T10:53:16.374Z,45.17
2023-05-01T10:55:46.403Z,45.26
2023-05-01T10:58:35.019Z,45.18
2023-05-01T11:01:28.209Z,45.42
2023-05-01T11:03:57.474Z,44.87
2023-05-01T11:06:26.380Z,44.62
2023-05-01T11:08:54.932Z,44.67
2023-05-01T11:11:22.948Z,44.35
2023-05-01T11:14:07.221Z,43.90
2023-05-01T11:16:38.525Z,43.67
2023-05-01T11:19:22.723Z,43.95
2023-05-01T11:21:50.837Z,43.73
2023-05-01T11:24:19.732Z,43.85
2023-05-01T11:26:48.659Z,43.62
2023-05-01T11:29:17.410Z,43.29
2023-05-01T11:31:48.509Z,42.91
2023-05-01T11:34:17.119Z,43.20
2023-05-01T11:36:52.399Z,42.89
2023-05-01T11:39:20.579Z,42.87
2023-05-01T11:41:48.623Z,42.76
2023-05-01T11:44:17.886Z,42.75
2023-05-01T11:46:46.079Z,42.70
2023-05-01T11:49:14.731Z,42.33
2023-05-01T11:51:42.665Z,42.25
2023-05-01T11:54:15.130Z,41.83
2023-05-01T11:56:43.980Z,41.89
2023-05-01T11:59:16.599Z,41.28
2023-05-01T12:01:46.343Z,40.81
2023-05-01T12:04:24.230Z,40.59
2023-05-01T12:06:52.292Z,40.50
2023-05-01T12:09:23.073Z,40.20
2023-05-01T12:11:53.128Z,40.08
2023-05-01T12:14:22.127Z,40.30
2023-05-01T12:16:50.571Z,39.95
2023-05-01T12:19:19.755Z,40.24
2023-05-01T12:21:48.965Z,40.23
2023-05-01T12:24:18.712Z,40.04
2023-05-01T12:26:46.997Z,40.14
2023-05-01T12:29:15.047Z,39.87
2023-05-01T12:31:48.719Z,39.53
2023-05-01T12:34:17.017Z,39.80
2023-05-01T12:36:54.001Z,40.03
2023-05-01T12:39:23.510Z,39.95
2023-05-01T12:41:51.583Z,39.74
2023-05-01T12:44:22.541Z,39.46
2023-05-01T12:46:54.734Z,39.51
2023-05-01T12:49:23.530Z,39.76
2023-05-01T12:51:53.427Z,39.53
2023-05-01T12:54:23.351Z,39.72
2023-05-01T12:56:54.685Z,39.34
2023-05-01T12:59:24.684Z,39.03
2023-05-01T13:02:30.152Z,38.86
2023-05-01T13:05:11.804Z,38.97
2023-05-01T13:07:40.260Z,39.00
2023-05-01T13:10:08.582Z,38.69
2023-05-01T13:12:45.072Z,38.74
2023-05-01T13:15:21.625Z,38.71
2023-05-01T13:17:49.721Z,38.74
2023-05-01T13:20:26.526Z,38.55
2023-05-01T13:22:54.705Z,38.60
2023-05-01T13:25:23.410Z,38.81
2023-05-01T13:27:53.309Z,38.74
2023-05-01T13:30:31.829Z,38.79
2023-05-01T13:33:00.716Z,38.66
2023-05-01T13:35:28.686Z,38.65
2023-05-01T13:37:56.951Z,38.87
2023-05-01T13:40:26.382Z,38.58
2023-05-01T13:42:54.383Z,38.68
2023-05-01T13:45:22.627Z,38.55
2023-05-01T13:47:51.963Z,38.56
2023-05-01T13:50:20.157Z,38.38
2023-05-01T13:52:48.534Z,38.42
2023-05-01T13:55:17.778Z,38.33
2023-05-01T13:57:45.779Z,38.44
2023-05-01T14:00:17.808Z,38.36
2023-05-01T14:02:49.096Z,38.22
2023-05-01T14:05:24.780Z,38.07
2023-05-01T14:07:56.975Z,37.95
2023-05-01T14:10:28.184Z,38.20
2023-05-01T14:12:58.625Z,38.21
2023-05-01T14:15:28.086Z,38.36
2023-05-01T14:17:56.380Z,38.25
2023-05-01T14:20:27.417Z,37.91
2023-05-01T14:22:55.400Z,38.23
2023-05-01T14:25:29.906Z,38.25
2023-05-01T14:27:59.538Z,38.50
2023-05-01T14:30:37.279Z,38.25
2023-05-01T14:33:07.773Z,38.19
2023-05-01T14:35:36.447Z,38.05
2023-05-01T14:38:09.767Z,37.88
2023-05-01T14:40:39.558Z,37.85
2023-05-01T14:43:16.438Z,37.82
2023-05-01T14:45:46.458Z,37.99
2023-05-01T14:48:21.021Z,38.01
2023-05-01T14:50:49.962Z,38.16
2023-05-01T14:53:18.317Z,38.21
2023-05-01T14:55:50.411Z,38.46
2023-05-01T14:58:18.405Z,38.33
2023-05-01T15:00:46.414Z,38.30
2023-05-01T15:03:14.394Z,38.59
2023-05-01T15:05:42.526Z,38.52
2023-05-01T15:08:10.720Z,38.61
2023-05-01T15:10:38.829Z,39.04
2023-05-01T15:13:06.958Z,38.80
2023-05-01T15:15:34.912Z,38.86
2023-05-01T15:18:04.095Z,38.88
2023-05-01T15:20:32.339Z,38.84
2023-05-01T15:23:00.296Z,38.98
2023-05-01T15:25:28.367Z,39.04
2023-05-01T15:27:57.160Z,38.89
2023-05-01T15:30:25.254Z,38.89
2023-05-01T15:32:55.717Z,38.96
2023-05-01T15:35:24.130Z,38.65
2023-05-01T15:37:52.766Z,38.56
2023-05-01T15:40:20.692Z,38.58
2023-05-01T15:42:48.536Z,38.74
2023-05-01T15:45:16.764Z,38.76
2023-05-01T15:47:45.030Z,38.96
2023-05-01T15:50:13.016Z,39.17
2023-05-01T15:52:40.890Z,39.35
2023-05-01T15:55:08.926Z,39.14
2023-05-01T15:57:36.804Z,38.91
2023-05-01T16:00:05.368Z,39.07
2023-05-01T16:02:33.716Z,39.17
2023-05-01T16:05:01.808Z,39.22
2023-05-01T16:07:29.978Z,39.27
2023-05-01T16:09:58.347Z,39.41
2023-05-01T16:12:30.217Z,39.63
2023-05-01T16:15:00.963Z,39.68
2023-05-01T16:17:31.741Z,39.77
2023-05-01T16:20:03.083Z,39.83
2023-05-01T16:22:32.774Z,40.04
2023-05-01T16:25:01.284Z,39.97
2023-05-01T16:27:29.274Z,39.93
2023-05-01T16:29:57.615Z,40.46
2023-05-01T16:32:26.030Z,40.41
2023-05-01T16:34:53.955Z,40.29
2023-05-01T16:37:25.226Z,40.37
2023-05-01T16:39:53.134Z,40.58
2023-05-01T16:42:21.199Z,40.59
2023-05-01T16:44:49.148Z,40.78
2023-05-01T16:47:17.270Z,40.97
2023-05-01T16:49:46.670Z,41.12
2023-05-01T16:52:15.706Z,41.46
2023-05-01T16:54:43.538Z,41.34
2023-05-01T16:59:39.327Z,41.56
2023-05-01T17:02:07.416Z,41.92
2023-05-01T17:04:35.587Z,41.75
2023-05-01T17:07:03.874Z,41.86
2023-05-01T17:09:32.406Z,41.94
2023-05-01T17:12:00.286Z,42.22
2023-05-01T17:14:30.390Z,42.19
2023-05-01T17:16:58.932Z,42.15
2023-05-01T17:19:26.917Z,42.20
2023-05-01T17:21:54.854Z,42.32
2023-05-01T17:24:23.204Z,42.31
2023-05-01T17:26:51.136Z,42.39
2023-05-01T17:29:19.040Z,42.60
2023-05-01T17:31:46.998Z,42.63
2023-05-01T17:34:14.893Z,42.86
2023-05-01T17:36:42.822Z,43.13
2023-05-01T17:39:10.751Z,43.02
2023-05-01T17:41:38.646Z,43.01
2023-05-01T17:44:06.544Z,43.24
2023-05-01T17:46:35.613Z,43.58
2023-05-01T17:49:03.643Z,43.47
2023-05-01T17:51:32.926Z,43.40
2023-05-01T17:54:01.625Z,43.46
2023-05-01T17:56:29.570Z,43.92
2023-05-01T17:58:57.476Z,43.90
2023-05-01T18:01:25.534Z,43.97
2023-05-01T18:03:54.233Z,44.18
2023-05-01T18:06:22.387Z,44.23
2023-05-01T18:08:50.567Z,44.46
2023-05-01T18:11:18.662Z,44.92
2023-05-01T18:13:48.183Z,45.06
2023-05-01T18:16:16.239Z,44.99
2023-05-01T18:18:44.538Z,44.77
2023-05-01T18:21:12.767Z,44.85
2023-05-01T18:23:40.958Z,45.05
2023-05-01T18:26:08.909Z,44.96
2023-05-01T18:28:36.812Z,45.11
2023-05-01T18:31:04.860Z,45.23
2023-05-01T18:33:33.222Z,45.38
2023-05-01T18:36:01.120Z,45.41
2023-05-01T18:38:29.050Z,45.69
2023-05-01T18:40:58.505Z,45.77
2023-05-01T18:43:27.693Z,45.89
2023-05-01T18:45:55.689Z,45.99
2023-05-01T18:48:23.647Z,46.13
2023-05-01T18:51:04.677Z,46.14
2023-05-01T18:53:35.416Z,46.21
2023-05-01T18:56:03.517Z,46.48
2023-05-01T18:58:31.416Z,46.49
2023-05-01T19:00:59.367Z,46.49
2023-05-01T19:03:27.248Z,46.43
2023-05-01T19:05:55.146Z,46.49
2023-05-01T19:08:23.152Z,46.64
2023-05-01T19:10:50.998Z,46.81
2023-05-01T19:13:18.875Z,46.89
2023-05-01T19:15:46.788Z,46.88
2023-05-01T19:18:16.144Z,46.94
2023-05-01T19:20:45.830Z,47.04
2023-05-01T19:23:13.761Z,47.14
2023-05-01T19:25:41.762Z,47.22
2023-05-01T19:28:09.689Z,47.18
2023-05-01T19:30:38.706Z,47.27
2023-05-01T19:33:06.973Z,47.39
2023-05-01T19:35:35.501Z,47.39
2023-05-01T19:38:05.101Z,47.46
2023-05-01T19:40:33.338Z,47.55
2023-05-01T19:43:01.390Z,47.56
2023-05-01T19:45:29.564Z,47.63
2023-05-01T19:47:57.773Z,47.73
2023-05-01T19:50:26.333Z,47.83
2023-05-01T19:52:54.370Z,47.76
2023-05-01T19:55:22.430Z,47.81
2023-05-01T19:57:51.899Z,47.65
2023-05-01T20:00:20.296Z,47.76
2023-05-01T20:02:48.690Z,47.76
2023-05-01T20:05:17.082Z,47.70
2023-05-01T20:07:45.352Z,47.84
2023-05-01T20:10:13.401Z,47.84
2023-05-01T20:12:42.130Z,47.81
2023-05-01T20:15:12.052Z,47.92
2023-05-01T20:17:40.108Z,47.97
2023-05-01T20:20:08.498Z,48.07
2023-05-01T20:22:36.500Z,48.15
2023-05-01T20:25:05.571Z,48.24
2023-05-01T20:27:35.584Z,48.28
2023-05-01T20:30:03.918Z,48.31
2023-05-01T20:32:31.943Z,48.29
2023-05-01T20:35:00.432Z,48.50
2023-05-01T20:37:28.352Z,48.64
2023-05-01T20:39:56.402Z,48.61
2023-05-01T20:42:24.638Z,48.74
2023-05-01T20:44:53.082Z,48.67
2023-05-01T20:47:21.013Z,48.73
2023-05-01T20:49:49.112Z,48.89
2023-05-01T20:52:17.175Z,49.08
2023-05-01T20:54:45.090Z,48.95
2023-05-01T20:57:16.444Z,49.13
2023-05-01T20:59:50.919Z,49.18
2023-05-01T21:02:19.193Z,49.16
2023-05-01T21:04:47.169Z,49.34
2023-05-01T21:07:15.191Z,49.36
2023-05-01T21:09:45.357Z,49.43
2023-05-01T21:12:14.512Z,49.54
2023-05-01T21:14:42.671Z,49.63
2023-05-01T21:17:10.820Z,49.74
2023-05-01T21:19:46.885Z,49.84
2023-05-01T21:22:20.942Z,49.88
2023-05-01T21:24:54.080Z,50.04
2023-05-01T21:27:24.216Z,50.13
2023-05-01T21:29:57.641Z,50.22
2023-05-01T21:32:30.625Z,50.26
2023-05-01T21:35:02.142Z,50.26
2023-05-01T21:37:30.082Z,50.29
2023-05-01T21:39:59.793Z,50.53
2023-05-01T21:42:35.520Z,50.61
2023-05-01T21:45:08.698Z,50.56
2023-05-01T21:47:39.261Z,50.81
2023-05-01T21:50:08.314Z,50.90
2023-05-01T21:52:36.386Z,50.89
2023-05-01T21:55:06.734Z,50.92
2023-05-01T21:57:35.603Z,51.00
2023-05-01T22:00:05.460Z,51.14
2023-05-01T22:02:40.672Z,51.29
2023-05-01T22:05:09.437Z,51.32
2023-05-01T22:07:41.704Z,51.38
2023-05-01T22:10:11.891Z,51.53
2023-05-01T22:12:40.685Z,51.64
2023-05-01T22:15:10.587Z,51.78
2023-05-01T22:17:39.490Z,51.96
2023-05-01T22:20:09.139Z,51.91
2023-05-01T22:22:39.062Z,52.01
2023-05-01T22:25:08.298Z,52.07
2023-05-01T22:27:37.808Z,52.02
2023-05-01T22:30:06.669Z,52.20
2023-05-01T22:32:34.707Z,52.33
2023-05-01T22:35:02.772Z,52.37
2023-05-01T22:37:30.706Z,52.39
2023-05-01T22:39:58.913Z,52.39
2023-05-01T22:42:27.115Z,52.45
2023-05-01T22:44:55.123Z,52.69
2023-05-01T22:47:23.071Z,52.79
2023-05-01T22:49:50.991Z,52.95
2023-05-01T22:52:19.194Z,52.92
2023-05-01T22:54:47.374Z,52.91
2023-05-01T22:57:15.224Z,53.00
2023-05-01T22:59:43.637Z,53.17
2023-05-01T23:02:16.708Z,53.27
2023-05-01T23:04:45.648Z,53.34
2023-05-01T23:07:14.032Z,53.27
2023-05-01T23:09:42.002Z,53.31
2023-05-01T23:12:16.678Z,53.30
2023-05-01T23:14:46.657Z,53.37
2023-05-01T23:17:15.263Z,53.43
2023-05-01T23:19:44.498Z,53.41
2023-05-01T23:22:15.480Z,53.60
2023-05-01T23:24:48.402Z,53.64
2023-05-01T23:27:17.935Z,53.62
2023-05-01T23:29:58.362Z,53.70
2023-05-01T23:32:31.296Z,53.85
2023-05-01T23:35:15.048Z,54.11
2023-05-01T23:37:43.820Z,53.99
2023-05-01T23:40:11.803Z,53.90
2023-05-01T23:42:40.051Z,53.92
2023-05-01T23:45:08.392Z,54.01
2023-05-01T23:47:37.589Z,54.11
2023-05-01T23:50:06.420Z,54.16
2023-05-01T23:52:34.574Z,54.18
2023-05-01T23:55:02.474Z,54.31
2023-05-01T23:57:30.403Z,54.48
2023-05-01T23:59:58.586Z,54.46
